Time;durP1;ratioP1;P1;durP2;ratioP2;P2;SDS_P1;SDS_P2;PMS_P1;PMS_P2;Temp;Humidity;BMP_temperature;BMP_pressure;BME280_temperature;BME280_humidity;BME280_pressure;Samples;Min_cycle;Max_cycle;Signal;HPM_P1;HPM_P2
2022/04/15 05:01:52;;;;;;;8.10;4.47;;;11.30;99.90;;;;;;6154806;23;20009;-83
2022/04/15 05:04:18;;;;;;;7.50;4.72;;;11.40;99.90;;;;;;6248053;23;20210;-88
2022/04/15 05:06:44;;;;;;;7.88;4.32;;;11.50;99.90;;;;;;6248750;23;20008;-84
2022/04/15 05:09:13;;;;;;;8.07;4.80;;;11.60;99.90;;;;;;6223979;23;20005;-84
2022/04/15 05:11:40;;;;;;;9.77;5.35;;;11.70;99.90;;;;;;6248086;23;20056;-84
2022/04/15 05:14:06;;;;;;;7.07;4.35;;;11.70;99.90;;;;;;6223466;23;20004;-81
2022/04/15 05:16:31;;;;;;;9.05;4.47;;;11.80;99.90;;;;;;6247369;23;20233;-84
2022/04/15 05:18:57;;;;;;;7.63;3.80;;;11.80;99.90;;;;;;6223102;23;20121;-81
2022/04/15 05:21:23;;;;;;;6.80;4.13;;;11.90;99.90;;;;;;6247402;23;20016;-80
2022/04/15 05:23:51;;;;;;;7.97;3.92;;;11.90;99.90;;;;;;6223085;23;20008;-81
2022/04/15 05:26:20;;;;;;;6.22;3.47;;;12.00;99.90;;;;;;6247866;23;20069;-81
2022/04/15 05:28:46;;;;;;;6.60;4.25;;;12.00;99.90;;;;;;6222841;23;20024;-81
2022/04/15 05:31:12;;;;;;;5.85;3.78;;;12.10;99.90;;;;;;6247027;22;20008;-80
2022/04/15 05:33:38;;;;;;;9.10;4.20;;;12.10;99.90;;;;;;6222643;23;20221;-82
2022/04/15 05:36:04;;;;;;;7.47;4.10;;;12.30;99.90;;;;;;6247995;23;20060;-82
2022/04/15 05:38:30;;;;;;;7.40;3.97;;;12.30;99.90;;;;;;6247400;23;20293;-81
2022/04/15 05:40:56;;;;;;;6.30;3.30;;;12.40;99.90;;;;;;6247616;23;20293;-81
2022/04/15 05:43:22;;;;;;;6.68;3.85;;;12.50;99.90;;;;;;6222120;23;20032;-80
2022/04/15 05:45:48;;;;;;;7.65;3.42;;;12.60;99.90;;;;;;6221360;22;20024;-81
2022/04/15 05:48:15;;;;;;;5.97;3.53;;;12.80;99.90;;;;;;6247331;23;20007;-82
2022/04/15 05:50:41;;;;;;;9.10;3.65;;;12.90;99.90;;;;;;6246617;23;20004;-80
2022/04/15 05:53:06;;;;;;;9.13;4.10;;;13.00;99.90;;;;;;6247669;23;20001;-81
2022/04/15 05:55:33;;;;;;;7.40;3.55;;;13.10;99.90;;;;;;6221135;23;20012;-81
2022/04/15 05:57:59;;;;;;;7.10;3.78;;;13.30;99.90;;;;;;6249595;23;20202;-81
2022/04/15 06:00:25;;;;;;;6.25;3.80;;;13.40;99.90;;;;;;6246393;22;20013;-80
2022/04/15 06:02:51;;;;;;;7.40;4.00;;;13.50;99.40;;;;;;6247058;22;20273;-81
2022/04/15 06:05:16;;;;;;;7.88;3.95;;;13.50;99.60;;;;;;6213818;23;20008;-81
2022/04/15 06:07:42;;;;;;;8.98;4.38;;;13.60;98.80;;;;;;6221253;23;20016;-81
2022/04/15 06:10:08;;;;;;;5.43;4.07;;;13.80;98.40;;;;;;6221245;23;20266;-78
2022/04/15 06:15:24;;;;;;;5.50;3.83;;;14.00;97.50;;;;;;6246017;22;20012;-81
2022/04/15 06:17:51;;;;;;;7.25;4.43;;;14.20;96.80;;;;;;6223586;23;20009;-79
2022/04/15 06:20:17;;;;;;;7.10;4.05;;;14.30;97.10;;;;;;6222751;23;20008;-79
2022/04/15 06:22:44;;;;;;;7.43;5.15;;;14.30;97.10;;;;;;6222525;23;20193;-82
2022/04/15 06:25:10;;;;;;;8.68;5.05;;;14.40;96.90;;;;;;6248551;23;20009;-81
2022/04/15 06:27:36;;;;;;;8.95;4.70;;;14.40;96.80;;;;;;6222753;23;20004;-81
2022/04/15 06:30:03;;;;;;;7.97;4.53;;;14.40;96.80;;;;;;6222217;22;20258;-82
2022/04/15 06:32:29;;;;;;;9.85;5.13;;;14.50;96.60;;;;;;6247616;23;20000;-81
2022/04/15 06:34:55;;;;;;;7.75;4.70;;;14.50;96.60;;;;;;6223349;23;20012;-79
2022/04/15 06:37:21;;;;;;;8.57;4.07;;;14.50;96.60;;;;;;6197942;23;20004;-83
2022/04/15 06:39:52;;;;;;;8.35;4.55;;;14.60;96.10;;;;;;6222429;23;20182;-81
2022/04/15 06:42:34;;;;;;;8.02;4.65;;;14.70;95.90;;;;;;6222947;23;20064;-81
2022/04/15 06:45:01;;;;;;;8.77;4.20;;;14.90;95.40;;;;;;6222391;23;20077;-81
2022/04/15 06:47:27;;;;;;;9.05;4.97;;;15.00;95.40;;;;;;6232339;23;20295;-82
2022/04/15 06:49:53;;;;;;;7.00;5.10;;;15.10;95.00;;;;;;6222888;23;20011;-81
2022/04/15 06:52:19;;;;;;;10.75;5.22;;;15.20;94.80;;;;;;6222763;23;20012;-83
2022/04/15 06:54:45;;;;;;;8.35;4.93;;;15.20;94.70;;;;;;6222458;23;20031;-80
2022/04/15 06:57:11;;;;;;;8.45;4.90;;;15.40;94.40;;;;;;6222707;23;20206;-79
2022/04/15 06:59:54;;;;;;;11.13;4.95;;;15.50;94.40;;;;;;6221200;23;20389;-82
2022/04/15 07:02:20;;;;;;;8.10;5.20;;;15.60;94.20;;;;;;6246395;22;20017;-83
2022/04/15 07:04:46;;;;;;;10.43;5.70;;;15.70;94.00;;;;;;6247252;23;20027;-81
2022/04/15 07:07:13;;;;;;;12.30;5.93;;;15.80;94.10;;;;;;6222485;23;20194;-84
2022/04/15 07:09:39;;;;;;;10.05;6.10;;;15.90;93.50;;;;;;6223158;23;20004;-82
2022/04/15 07:12:06;;;;;;;10.65;6.78;;;15.90;93.60;;;;;;6221923;23;19996;-83
2022/04/15 07:14:33;;;;;;;9.55;5.30;;;16.10;93.10;;;;;;6221247;23;20024;-80
2022/04/15 07:17:00;;;;;;;9.23;5.28;;;16.20;92.90;;;;;;6221757;22;20017;-81
2022/04/15 07:19:27;;;;;;;9.02;6.43;;;16.40;92.50;;;;;;6221889;23;20164;-78
2022/04/15 07:21:53;;;;;;;9.80;6.40;;;16.50;92.60;;;;;;6222844;23;20024;-81
2022/04/15 07:24:37;;;;;;;7.95;5.90;;;16.60;92.00;;;;;;6223301;23;20000;-82
2022/04/15 07:28:08;;;;;;;9.27;6.57;;;16.70;92.00;;;;;;6233812;23;20016;-83
2022/04/15 07:33:20;;;;;;;11.43;7.43;;;16.90;91.70;;;;;;6225022;23;20008;-83
2022/04/15 07:36:44;;;;;;;9.40;6.40;;;16.90;91.40;;;;;;6223943;23;20306;-81
2022/04/15 07:39:35;;;;;;;10.27;7.03;;;17.10;91.20;;;;;;6247897;23;20075;-81
2022/04/15 07:42:12;;;;;;;11.85;7.43;;;17.30;90.60;;;;;;6224944;23;20051;-82
2022/04/15 07:44:45;;;;;;;12.95;7.75;;;17.40;90.40;;;;;;6225793;23;20057;-81
2022/04/15 07:47:29;;;;;;;15.07;10.00;;;17.50;89.80;;;;;;6243815;23;20536;-80
2022/04/15 07:49:55;;;;;;;13.88;9.38;;;17.30;88.00;;;;;;6224376;23;20005;-79
2022/04/15 07:52:21;;;;;;;12.52;8.32;;;17.30;88.50;;;;;;6249029;23;20001;-80
2022/04/15 07:54:48;;;;;;;14.23;7.80;;;17.50;89.50;;;;;;6224920;23;20059;-81
2022/04/15 07:57:17;;;;;;;13.15;8.93;;;17.70;89.80;;;;;;6224129;23;20009;-82
2022/04/15 07:59:51;;;;;;;;;;;17.80;88.70;;;;;;6224232;23;20008;-80
2022/04/15 08:02:17;;;;;;;11.15;7.78;;;18.00;88.40;;;;;;6221835;22;19923;-82
2022/04/15 08:04:43;;;;;;;14.02;9.43;;;18.30;86.90;;;;;;6221181;23;20195;-80
2022/04/15 08:07:09;;;;;;;12.90;8.27;;;18.40;85.30;;;;;;6223945;23;20004;-80
2022/04/15 08:09:35;;;;;;;12.75;7.60;;;18.60;84.70;;;;;;6222589;23;20167;-81
2022/04/15 08:12:01;;;;;;;15.65;8.55;;;18.60;85.00;;;;;;6223611;23;20009;-81
2022/04/15 08:14:27;;;;;;;11.77;8.10;;;18.90;85.40;;;;;;6225494;23;20005;-80
2022/04/15 08:16:53;;;;;;;12.18;8.43;;;19.00;85.00;;;;;;6223586;22;20005;-80
2022/04/15 08:19:20;;;;;;;12.02;8.68;;;19.10;84.40;;;;;;6222087;23;20546;-79
2022/04/15 08:21:45;;;;;;;12.77;8.63;;;19.10;83.60;;;;;;6225802;23;20004;-80
2022/04/15 08:24:11;;;;;;;12.40;9.13;;;19.10;83.30;;;;;;6225533;23;20047;-80
2022/04/15 08:26:45;;;;;;;12.77;8.82;;;19.20;83.30;;;;;;6223839;23;20103;-79
2022/04/15 08:29:11;;;;;;;14.48;9.77;;;19.30;82.70;;;;;;6224070;23;20119;-82
2022/04/15 08:31:37;;;;;;;15.35;10.18;;;19.40;82.50;;;;;;6225991;22;20017;-80
2022/04/15 08:34:02;;;;;;;16.92;10.60;;;19.30;82.40;;;;;;6225184;23;20005;-80
2022/04/15 08:36:28;;;;;;;16.10;11.52;;;19.40;82.70;;;;;;6223312;23;20024;-80
2022/04/15 08:38:55;;;;;;;15.18;11.05;;;19.40;80.90;;;;;;6228949;23;20258;-79
2022/04/15 08:41:23;;;;;;;15.32;11.68;;;19.20;81.20;;;;;;6254060;23;20000;-80
2022/04/15 08:43:49;;;;;;;17.45;12.15;;;19.00;81.80;;;;;;6236205;23;20024;-80
2022/04/15 08:46:16;;;;;;;13.10;9.25;;;19.00;82.00;;;;;;6235992;22;20008;-80
2022/04/15 08:48:42;;;;;;;14.90;10.95;;;19.10;82.40;;;;;;6230071;23;20039;-82
2022/04/15 08:51:13;;;;;;;13.98;10.35;;;19.30;81.60;;;;;;6223736;23;20320;-80
2022/04/15 08:53:40;;;;;;;15.13;11.43;;;19.50;81.80;;;;;;6248216;23;20072;-79
2022/04/15 08:56:08;;;;;;;14.65;10.50;;;19.70;80.80;;;;;;6223794;23;20015;-80
2022/04/15 08:58:35;;;;;;;17.08;12.55;;;19.90;80.30;;;;;;6248610;23;19993;-80
2022/04/15 09:01:10;;;;;;;17.27;11.32;;;20.00;78.30;;;;;;6224137;22;20017;-80
2022/04/15 09:03:36;;;;;;;16.08;12.25;;;20.00;79.00;;;;;;6224499;23;20012;-80
2022/04/15 09:06:02;;;;;;;18.27;13.70;;;20.10;77.30;;;;;;6225113;23;20007;-79
2022/04/15 09:08:31;;;;;;;17.80;12.73;;;20.00;76.70;;;;;;6223358;23;20004;-81
2022/04/15 09:11:03;;;;;;;14.43;11.57;;;20.00;78.10;;;;;;6223191;23;20007;-80
2022/04/15 09:13:40;;;;;;;13.98;11.02;;;20.10;77.90;;;;;;6247606;23;20078;-80
2022/04/15 09:16:08;;;;;;;16.75;13.13;;;20.30;78.10;;;;;;6250032;22;20294;-80
2022/04/15 09:18:44;;;;;;;18.20;13.65;;;20.30;76.20;;;;;;6222253;23;20312;-80
2022/04/15 09:21:24;;;;;;;14.77;11.88;;;20.20;75.80;;;;;;6247542;23;20341;-80
2022/04/15 09:23:52;;;;;;;13.73;12.15;;;20.30;75.70;;;;;;6224249;23;20009;-79
2022/04/15 09:26:55;;;;;;;16.65;12.52;;;20.40;75.40;;;;;;6248012;23;20036;-80
2022/04/15 09:29:34;;;;;;;16.40;11.68;;;20.40;76.10;;;;;;6246175;23;20047;-81
2022/04/15 09:32:16;;;;;;;14.88;11.50;;;20.70;75.90;;;;;;6223782;22;20020;-80
2022/04/15 09:34:59;;;;;;;14.98;11.95;;;20.80;73.30;;;;;;6249674;23;20000;-80
2022/04/15 09:37:34;;;;;;;15.60;12.75;;;20.40;74.00;;;;;;6223322;23;20020;-82
2022/04/15 09:40:16;;;;;;;15.68;12.57;;;20.40;74.10;;;;;;6225053;23;20004;-82
2022/04/15 09:42:50;;;;;;;15.38;12.25;;;20.40;73.00;;;;;;6247685;23;20032;-81
2022/04/15 09:45:21;;;;;;;14.32;12.00;;;20.50;72.90;;;;;;6224069;22;20005;-80
2022/04/15 09:48:03;;;;;;;13.25;10.85;;;20.50;73.80;;;;;;6248204;23;20306;-81
2022/04/15 09:50:37;;;;;;;13.88;11.45;;;20.70;73.50;;;;;;6223226;23;20008;-82
2022/04/15 09:53:20;;;;;;;16.23;12.35;;;20.80;72.90;;;;;;6225054;23;20000;-83
2022/04/15 09:55:53;;;;;;;14.63;12.23;;;20.80;72.50;;;;;;6222773;23;20011;-81
2022/04/15 09:58:42;;;;;;;14.35;11.85;;;20.80;71.20;;;;;;6247809;23;20024;-83
2022/04/15 10:01:08;;;;;;;13.45;10.20;;;21.30;71.40;;;;;;6222617;22;20062;-81
2022/04/15 10:03:40;;;;;;;12.75;11.10;;;21.50;71.50;;;;;;6222296;23;20012;-81
2022/04/15 10:06:07;;;;;;;13.93;10.52;;;21.60;71.80;;;;;;6221794;23;20016;-84
2022/04/15 10:08:40;;;;;;;12.93;9.77;;;21.70;69.90;;;;;;6222574;23;20008;-82
2022/04/15 10:11:12;;;;;;;12.48;9.98;;;21.60;70.20;;;;;;6222778;23;20051;-82
2022/04/15 10:13:48;;;;;;;11.88;10.50;;;21.50;70.10;;;;;;6221894;23;20063;-87
2022/04/15 10:16:14;;;;;;;10.68;8.57;;;21.40;69.50;;;;;;6247477;22;20071;-87
2022/04/15 10:18:46;;;;;;;12.13;10.45;;;21.70;70.00;;;;;;6223008;23;20009;-83
2022/04/15 10:21:12;;;;;;;11.18;9.95;;;21.70;69.30;;;;;;6249621;23;20009;-85
2022/04/15 10:23:38;;;;;;;11.02;8.10;;;21.90;69.10;;;;;;6223457;23;20008;-83
2022/04/15 10:26:06;;;;;;;12.73;10.60;;;22.20;69.60;;;;;;6248065;23;20050;-85
2022/04/15 10:28:39;;;;;;;12.27;10.20;;;22.30;68.30;;;;;;6222011;23;20012;-85
2022/04/15 10:31:11;;;;;;;12.80;9.88;;;22.30;68.00;;;;;;6247597;22;20008;-84
2022/04/15 10:33:39;;;;;;;13.65;9.57;;;22.70;67.40;;;;;;6222551;23;20163;-83
2022/04/15 10:36:17;;;;;;;9.82;8.43;;;22.60;66.60;;;;;;6222512;23;19996;-85
2022/04/15 10:39:11;;;;;;;12.07;9.77;;;22.20;67.50;;;;;;6225063;23;20008;-81
2022/04/15 10:42:04;;;;;;;11.85;10.00;;;22.00;67.30;;;;;;6250620;23;20008;-81
2022/04/15 10:44:39;;;;;;;12.27;9.15;;;22.00;67.30;;;;;;6225428;23;20055;-85
2022/04/15 10:47:14;;;;;;;13.88;8.98;;;22.40;67.10;;;;;;6221644;22;20017;-82
2022/04/15 10:49:55;;;;;;;9.85;7.82;;;22.80;66.20;;;;;;6221914;23;20302;-84
2022/04/15 10:52:24;;;;;;;10.73;8.05;;;23.10;64.50;;;;;;6248214;23;20028;-83
2022/04/15 10:55:26;;;;;;;11.05;7.43;;;23.10;64.30;;;;;;6246598;22;20099;-84
2022/04/15 10:58:14;;;;;;;12.63;9.32;;;23.00;64.90;;;;;;6197269;23;20171;-82
2022/04/15 11:03:28;;;;;;;11.57;7.95;;;23.40;64.30;;;;;;6250921;22;20248;-83
2022/04/15 11:05:57;;;;;;;10.48;7.57;;;23.30;64.40;;;;;;6221786;23;20072;-82
2022/04/15 11:08:27;;;;;;;10.43;7.50;;;23.30;63.60;;;;;;6247895;23;20039;-84
2022/04/15 11:10:55;;;;;;;13.32;9.70;;;23.50;63.90;;;;;;6221825;23;20028;-86
2022/04/15 11:13:49;;;;;;;;;;;23.70;63.40;;;;;;6248130;23;20005;-86
2022/04/15 11:16:16;;;;;;;10.20;7.03;;;24.20;62.30;;;;;;6245315;22;19910;-84
2022/04/15 11:18:52;;;;;;;8.88;6.57;;;24.90;60.10;;;;;;6221326;23;20024;-85
2022/04/15 11:21:32;;;;;;;9.80;6.07;;;25.60;59.70;;;;;;6248083;23;20290;-84
2022/04/15 11:24:00;;;;;;;9.90;7.40;;;26.20;58.50;;;;;;6247429;23;20197;-85
2022/04/15 11:26:27;;;;;;;8.35;5.82;;;26.40;57.50;;;;;;6222155;23;20024;-85
2022/04/15 11:28:57;;;;;;;10.38;7.25;;;25.30;59.90;;;;;;6222341;23;20167;-83
2022/04/15 11:31:31;;;;;;;8.50;6.20;;;25.10;59.30;;;;;;6223130;22;20059;-84
2022/04/15 11:34:08;;;;;;;10.75;6.95;;;25.90;58.40;;;;;;6248884;23;20172;-87
2022/04/15 11:36:38;;;;;;;9.73;6.97;;;27.00;57.10;;;;;;6247123;23;20000;-85
2022/04/15 11:39:12;;;;;;;10.10;6.80;;;27.90;56.50;;;;;;6222523;23;20049;-84
2022/04/15 11:41:46;;;;;;;10.27;6.60;;;28.80;55.00;;;;;;6165795;23;20017;-84
2022/04/15 11:44:13;;;;;;;7.40;5.82;;;29.60;54.30;;;;;;6192654;23;20083;-85
2022/04/15 11:46:43;;;;;;;8.10;6.22;;;29.90;53.80;;;;;;6165638;23;20020;-83
2022/04/15 11:49:27;;;;;;;7.53;5.43;;;30.00;52.70;;;;;;6167414;23;20012;-82
2022/04/15 11:51:58;;;;;;;6.40;5.30;;;30.50;52.50;;;;;;6169395;23;20012;-83
2022/04/15 11:54:34;;;;;;;8.32;5.50;;;30.90;51.80;;;;;;6166439;23;20076;-83
2022/04/15 11:57:04;;;;;;;6.95;5.55;;;31.70;51.40;;;;;;6191148;23;20112;-83
2022/04/15 11:59:41;;;;;;;6.43;5.53;;;32.20;50.00;;;;;;6141794;23;20327;-81
2022/04/15 12:02:07;;;;;;;5.83;4.83;;;31.90;49.80;;;;;;6141142;23;20044;-81
2022/04/15 12:04:36;;;;;;;9.57;5.85;;;31.30;50.60;;;;;;6191439;23;20005;-80
2022/04/15 12:07:13;;;;;;;6.88;5.55;;;31.90;50.10;;;;;;6190122;23;20005;-82
2022/04/15 12:09:39;;;;;;;6.57;5.63;;;32.20;49.60;;;;;;6166060;23;20608;-81
2022/04/15 12:12:07;;;;;;;6.75;5.55;;;32.20;49.20;;;;;;6192271;23;20000;-82
2022/04/15 12:15:12;;;;;;;6.88;5.78;;;31.30;50.80;;;;;;6143047;23;20152;-84
2022/04/15 12:17:38;;;;;;;7.15;5.22;;;30.80;50.80;;;;;;6167509;23;20017;-83
2022/04/15 12:20:04;;;;;;;8.05;5.70;;;31.30;50.00;;;;;;6197664;23;20232;-83
2022/04/15 12:22:30;;;;;;;7.40;5.32;;;31.00;50.10;;;;;;6253522;23;20024;-82
2022/04/15 12:25:16;;;;;;;8.43;5.70;;;30.90;50.80;;;;;;6253463;23;20016;-85
2022/04/15 12:27:45;;;;;;;5.88;4.72;;;31.20;50.30;;;;;;6223733;23;20024;-85
2022/04/15 12:30:11;;;;;;;7.25;5.50;;;31.70;49.60;;;;;;6224244;22;20000;-83
2022/04/15 12:32:38;;;;;;;6.05;4.90;;;31.70;50.30;;;;;;6250239;23;20000;-81
2022/04/15 12:35:13;;;;;;;5.57;4.10;;;32.50;48.90;;;;;;6225207;23;20028;-81
2022/04/15 12:37:50;;;;;;;7.80;5.32;;;32.50;49.20;;;;;;6225974;23;20007;-82
2022/04/15 12:40:19;;;;;;;6.13;4.22;;;31.30;48.50;;;;;;6224936;23;20014;-82
2022/04/15 12:42:46;;;;;;;7.03;5.40;;;31.80;48.80;;;;;;6249001;23;20004;-81
2022/04/15 12:45:19;;;;;;;5.93;4.50;;;33.20;47.70;;;;;;6223401;22;20016;-81
2022/04/15 12:48:01;;;;;;;5.72;4.40;;;33.80;46.80;;;;;;6226178;23;20055;-82
2022/04/15 12:50:35;;;;;;;6.88;4.07;;;34.60;46.60;;;;;;6239502;23;19997;-83
2022/04/15 12:53:17;;;;;;;7.18;4.70;;;33.90;46.40;;;;;;6240219;23;19997;-84
2022/04/15 12:55:44;;;;;;;5.35;3.40;;;32.20;48.10;;;;;;6241141;22;20008;-84
2022/04/15 12:58:28;;;;;;;5.05;3.40;;;31.10;48.50;;;;;;6241521;22;20001;-82
2022/04/15 13:00:58;;;;;;;6.13;3.80;;;30.40;50.10;;;;;;6203426;23;20036;-81
2022/04/15 13:03:30;;;;;;;5.93;3.63;;;29.80;50.20;;;;;;6198901;23;20004;-82
2022/04/15 13:05:57;;;;;;;4.55;3.28;;;30.10;49.80;;;;;;6224797;23;20004;-83
2022/04/15 13:08:24;;;;;;;5.30;3.00;;;31.20;49.50;;;;;;6223762;23;20008;-83
2022/04/15 13:10:51;;;;;;;7.43;3.30;;;32.10;48.60;;;;;;6223308;23;20076;-83
2022/04/15 13:13:21;;;;;;;5.70;2.90;;;31.60;47.60;;;;;;6248450;23;20070;-83
2022/04/15 13:15:50;;;;;;;4.10;2.38;;;31.70;47.10;;;;;;6222621;22;20345;-84
2022/04/15 13:18:17;;;;;;;4.05;2.55;;;32.30;47.10;;;;;;6223165;23;20008;-83
2022/04/15 13:20:45;;;;;;;6.18;3.03;;;33.10;47.60;;;;;;6222628;23;20005;-82
2022/04/15 13:27:36;;;;;;;4.53;2.85;;;35.00;44.50;;;;;;6249094;23;20060;-83
2022/04/15 13:30:08;;;;;;;4.13;2.70;;;34.50;44.80;;;;;;6222527;22;20021;-81
2022/04/15 13:32:34;;;;;;;4.95;3.25;;;34.30;45.80;;;;;;6222778;23;19996;-83
2022/04/15 13:34:59;;;;;;;5.97;3.67;;;35.80;44.10;;;;;;6222472;23;20352;-81
2022/04/15 13:37:25;;;;;;;5.47;3.33;;;33.20;45.30;;;;;;6223226;23;20028;-83
2022/04/15 13:39:51;;;;;;;6.43;4.22;;;31.60;48.10;;;;;;6222793;23;20008;-82
2022/04/15 13:42:17;;;;;;;4.15;3.20;;;30.40;47.50;;;;;;6198017;23;20309;-82
2022/04/15 13:44:43;;;;;;;6.90;3.90;;;29.30;49.00;;;;;;6247894;23;20012;-82
2022/04/15 13:47:09;;;;;;;5.80;3.08;;;29.60;49.10;;;;;;6221780;22;20020;-84
2022/04/15 13:49:36;;;;;;;5.40;3.05;;;31.20;47.90;;;;;;6222186;23;20046;-85
2022/04/15 13:56:34;;;;;;;3.67;2.90;;;32.40;46.50;;;;;;6222355;23;20012;-82
2022/04/15 13:57:32;;;;;;;5.20;3.50;;;35.40;44.30;;;;;;6247644;23;20010;-84
2022/04/15 14:00:03;;;;;;;4.60;3.05;;;36.10;43.80;;;;;;6222286;23;20004;-84
2022/04/15 14:02:29;;;;;;;6.18;2.78;;;37.00;43.80;;;;;;6223217;23;20044;-82
2022/04/15 14:04:55;;;;;;;5.88;2.90;;;37.60;42.90;;;;;;6221558;23;20319;-86
2022/04/15 14:07:21;;;;;;;6.95;2.83;;;37.10;42.90;;;;;;6220436;23;20216;-87
2022/04/15 14:09:47;;;;;;;4.28;2.72;;;36.30;43.40;;;;;;6221763;23;20064;-84
2022/04/15 14:12:13;;;;;;;4.13;2.35;;;35.50;43.70;;;;;;6221786;23;19999;-84
2022/04/15 14:14:38;;;;;;;5.78;2.92;;;35.70;44.10;;;;;;6221924;23;20011;-83
2022/04/15 14:17:05;;;;;;;4.72;2.70;;;35.40;43.30;;;;;;6220510;22;20039;-83
2022/04/15 14:19:31;;;;;;;5.00;2.22;;;35.20;43.40;;;;;;6222061;23;20054;-86
2022/04/15 14:21:56;;;;;;;4.10;2.40;;;36.20;43.60;;;;;;6222020;23;20004;-84
2022/04/15 14:24:22;;;;;;;5.95;2.55;;;37.10;43.00;;;;;;6223351;23;20233;-84
2022/04/15 14:26:48;;;;;;;4.38;2.70;;;36.70;42.50;;;;;;6223116;23;20001;-81
2022/04/15 14:29:14;;;;;;;4.72;2.85;;;34.00;44.20;;;;;;6224321;23;20004;-83
2022/04/15 14:31:40;;;;;;;5.57;3.58;;;33.60;45.00;;;;;;6223141;22;20012;-84
2022/04/15 14:34:06;;;;;;;4.68;3.13;;;33.80;45.20;;;;;;6222717;23;20011;-84
2022/04/15 14:36:32;;;;;;;4.97;2.95;;;33.30;44.70;;;;;;6222220;23;20020;-82
2022/04/15 14:38:58;;;;;;;4.80;2.90;;;33.20;45.60;;;;;;6247176;23;19992;-83
2022/04/15 14:41:24;;;;;;;5.43;2.80;;;33.70;44.70;;;;;;6197342;23;20004;-82
2022/04/15 14:43:50;;;;;;;4.15;2.60;;;34.10;43.80;;;;;;6221208;23;20012;-80
2022/04/15 14:46:16;;;;;;;4.78;2.45;;;33.50;44.20;;;;;;6220967;22;20012;-81
2022/04/15 14:48:43;;;;;;;4.45;2.45;;;33.40;44.90;;;;;;6221993;23;20028;-83
2022/04/15 14:51:10;;;;;;;6.10;2.45;;;34.70;44.60;;;;;;6246558;23;20063;-81
2022/04/15 14:53:36;;;;;;;3.53;2.30;;;35.00;43.40;;;;;;6222114;23;19995;-85
2022/04/15 14:56:04;;;;;;;3.75;2.20;;;34.90;43.60;;;;;;6221251;23;20005;-86
2022/04/15 14:58:31;;;;;;;4.32;2.70;;;34.90;43.60;;;;;;6222215;23;20008;-80
2022/04/15 15:00:57;;;;;;;5.07;3.03;;;34.50;43.40;;;;;;6222727;23;20020;-83
2022/04/15 15:03:23;;;;;;;4.95;2.50;;;33.80;44.10;;;;;;6249260;22;20019;-80
2022/04/15 15:05:50;;;;;;;3.78;2.08;;;34.30;44.20;;;;;;6197860;23;20021;-81
2022/04/15 15:08:16;;;;;;;3.35;2.35;;;35.00;43.90;;;;;;6222887;23;20058;-83
2022/04/15 15:10:42;;;;;;;3.38;2.15;;;35.40;42.90;;;;;;6248960;23;20056;-83
2022/04/15 15:13:08;;;;;;;4.20;2.08;;;35.20;42.60;;;;;;6225047;23;20041;-81
2022/04/15 15:15:34;;;;;;;3.78;2.35;;;35.10;44.40;;;;;;6225311;22;20008;-81
2022/04/15 15:18:00;;;;;;;3.90;2.20;;;34.90;42.70;;;;;;6224920;23;19996;-81
2022/04/15 15:20:30;;;;;;;4.60;2.20;;;34.70;42.50;;;;;;6248858;23;20090;-84
2022/04/15 15:22:58;;;;;;;3.70;2.30;;;34.50;43.10;;;;;;6247427;23;20051;-80
2022/04/15 15:30:53;;;;;;;3.28;1.92;;;34.40;43.80;;;;;;6221314;22;20017;-81
2022/04/15 15:33:20;;;;;;;3.78;1.90;;;35.00;43.40;;;;;;6221159;23;20055;-86
2022/04/15 15:35:51;;;;;;;3.87;1.90;;;35.50;42.40;;;;;;6246658;23;20004;-85
2022/04/15 15:38:17;;;;;;;3.58;1.77;;;36.30;42.20;;;;;;6221196;23;20012;-85
2022/04/15 15:40:51;;;;;;;3.30;1.83;;;37.20;41.20;;;;;;6246346;23;20047;-85
2022/04/15 15:43:19;;;;;;;3.15;1.50;;;37.30;40.30;;;;;;6222038;23;20015;-82
2022/04/15 15:45:46;;;;;;;4.55;2.00;;;36.30;41.00;;;;;;6222404;22;20016;-85
2022/04/15 15:48:12;;;;;;;3.47;1.40;;;35.90;42.40;;;;;;6221984;23;20067;-83
2022/04/15 15:50:41;;;;;;;3.13;1.38;;;36.70;41.50;;;;;;6223420;23;20039;-83
2022/04/15 15:53:08;;;;;;;2.80;1.20;;;36.80;42.00;;;;;;6224855;23;20012;-84
2022/04/15 15:55:34;;;;;;;3.70;1.40;;;37.30;40.60;;;;;;6227074;23;20003;-86
2022/04/15 15:58:00;;;;;;;2.88;1.25;;;37.30;40.90;;;;;;6228947;23;20031;-82
2022/04/15 16:00:26;;;;;;;3.53;1.60;;;37.90;40.20;;;;;;6223740;22;20056;-83
2022/04/15 16:02:52;;;;;;;2.97;1.20;;;37.00;41.10;;;;;;6222713;23;20040;-86
2022/04/15 16:05:18;;;;;;;2.90;1.25;;;36.80;41.30;;;;;;6223482;23;20055;-83
2022/04/15 16:07:45;;;;;;;2.80;1.00;;;36.30;41.40;;;;;;6221929;23;20008;-84
2022/04/15 16:10:13;;;;;;;2.28;1.08;;;37.00;41.00;;;;;;6222236;23;20004;-85
2022/04/15 16:12:39;;;;;;;2.83;1.15;;;37.40;41.20;;;;;;6221467;23;20051;-84
2022/04/15 16:15:12;;;;;;;2.47;1.20;;;36.90;40.60;;;;;;6219594;22;20004;-84
2022/04/15 16:17:38;;;;;;;3.10;0.90;;;35.30;41.20;;;;;;6221494;23;20015;-84
2022/04/15 16:20:05;;;;;;;2.25;1.20;;;34.30;41.80;;;;;;6222381;23;20004;-85
2022/04/15 16:22:33;;;;;;;2.95;0.90;;;33.80;42.70;;;;;;6223264;23;20072;-85
2022/04/15 16:25:04;;;;;;;1.60;0.82;;;34.00;42.20;;;;;;6222835;23;20047;-87
2022/04/15 16:27:34;;;;;;;2.50;0.80;;;34.00;42.70;;;;;;6223444;23;20028;-83
2022/04/15 16:30:00;;;;;;;2.13;0.60;;;34.80;42.40;;;;;;6222923;23;20004;-83
2022/04/15 16:32:27;;;;;;;2.30;0.80;;;34.40;41.60;;;;;;6223031;22;20012;-85
2022/04/15 16:34:53;;;;;;;1.52;0.50;;;33.90;42.10;;;;;;6224032;23;19992;-85
2022/04/15 16:37:31;;;;;;;1.33;0.47;;;33.70;43.00;;;;;;6224437;23;20067;-83
2022/04/15 16:40:18;;;;;;;2.45;0.70;;;34.20;42.90;;;;;;6225933;23;20257;-83
2022/04/15 16:42:44;;;;;;;2.60;1.02;;;34.50;41.60;;;;;;6200549;23;20032;-83
2022/04/15 16:45:12;;;;;;;1.73;0.70;;;34.70;42.80;;;;;;6173001;22;20275;-85
2022/04/15 16:47:38;;;;;;;2.55;0.95;;;34.20;41.40;;;;;;6198356;23;20032;-83
2022/04/15 16:50:05;;;;;;;2.67;0.60;;;33.20;41.80;;;;;;6197533;23;19992;-85
2022/04/15 16:52:56;;;;;;;2.47;0.50;;;32.40;42.20;;;;;;6198672;23;20005;-82
2022/04/15 17:01:01;;;;;;;1.10;0.50;;;31.00;44.70;;;;;;6213962;22;20005;-85
2022/04/15 17:03:29;;;;;;;2.43;0.80;;;30.90;43.80;;;;;;6240293;23;20227;-83
2022/04/15 17:06:19;;;;;;;2.22;0.57;;;30.70;43.90;;;;;;6214231;23;20017;-83
2022/04/15 17:09:04;;;;;;;1.70;0.70;;;30.60;44.70;;;;;;6235640;22;20211;-82
2022/04/15 17:11:29;;;;;;;1.73;0.70;;;29.50;44.70;;;;;;6221110;23;20005;-85
2022/04/15 17:13:56;;;;;;;1.85;0.55;;;28.60;46.10;;;;;;6218113;23;20179;-80
2022/04/15 17:16:22;;;;;;;2.28;0.60;;;27.50;46.80;;;;;;6192148;23;20017;-80
2022/04/15 17:18:48;;;;;;;1.83;0.60;;;26.40;48.60;;;;;;6194638;23;20064;-79
2022/04/15 17:21:14;;;;;;;2.03;0.93;;;25.70;49.90;;;;;;6194045;23;20184;-82
2022/04/15 17:23:43;;;;;;;2.25;0.70;;;24.90;50.20;;;;;;6194489;23;20009;-78
2022/04/15 17:26:12;;;;;;;2.75;0.70;;;24.20;51.10;;;;;;6193577;23;20001;-79
2022/04/15 17:28:37;;;;;;;2.33;0.65;;;23.80;51.70;;;;;;6218177;23;20012;-84
2022/04/15 17:31:04;;;;;;;3.20;1.05;;;23.20;51.80;;;;;;6195615;23;20024;-82
2022/04/15 17:33:30;;;;;;;2.92;0.70;;;22.80;52.70;;;;;;6222201;23;20036;-81
2022/04/15 17:36:00;;;;;;;2.15;0.70;;;22.40;53.40;;;;;;6221831;23;20000;-83
2022/04/15 17:38:28;;;;;;;1.98;0.65;;;22.00;54.60;;;;;;6222793;23;20341;-81
2022/04/15 17:40:54;;;;;;;2.58;0.80;;;21.60;54.30;;;;;;6248469;23;20015;-83
2022/04/15 17:43:23;;;;;;;2.25;1.17;;;21.40;54.70;;;;;;6222896;23;20000;-84
2022/04/15 17:46:01;;;;;;;3.17;0.90;;;21.20;55.90;;;;;;6247891;22;20013;-82
2022/04/15 17:48:27;;;;;;;;;;;21.00;55.70;;;;;;6248055;23;20012;-81
2022/04/15 17:50:53;;;;;;;1.88;0.77;;;20.90;56.90;;;;;;6196886;23;19938;-82
2022/04/15 17:53:19;;;;;;;4.15;0.80;;;20.70;57.10;;;;;;6247176;23;20111;-80
2022/04/15 17:56:41;;;;;;;;;;;;;;;;;;;;;
2022/04/15 17:59:42;;;;;;;2.30;0.75;;;20.30;57.40;;;;;;6222634;23;20078;-81
2022/04/15 18:02:08;;;;;;;3.25;0.63;;;20.00;58.40;;;;;;6223285;22;20021;-83
2022/04/15 18:04:53;;;;;;;1.83;0.77;;;19.80;59.10;;;;;;6212957;23;20076;-81
2022/04/15 18:07:18;;;;;;;3.70;0.85;;;19.60;60.00;;;;;;6190958;23;20027;-82
2022/04/15 18:10:10;;;;;;;3.40;0.80;;;19.50;60.20;;;;;;6216499;23;20009;-81
2022/04/15 18:12:36;;;;;;;2.40;0.73;;;19.20;60.60;;;;;;6217693;23;20001;-84
2022/04/15 18:19:38;;;;;;;1.52;0.70;;;19.00;61.50;;;;;;6166995;23;20020;-82
2022/04/15 18:22:04;;;;;;;3.17;0.50;;;18.70;63.10;;;;;;6136504;23;20009;-83
2022/04/15 18:24:30;;;;;;;2.25;0.90;;;18.60;62.40;;;;;;6142132;23;20211;-82
2022/04/15 18:26:58;;;;;;;2.92;0.90;;;18.40;63.60;;;;;;6217451;23;20036;-82
2022/04/15 18:29:24;;;;;;;1.57;0.57;;;18.30;63.20;;;;;;6218190;23;20092;-82
2022/04/15 18:31:51;;;;;;;2.15;0.60;;;18.20;63.70;;;;;;6202689;23;20119;-83
2022/04/15 18:34:17;;;;;;;3.15;1.08;;;18.00;64.50;;;;;;6192179;23;20171;-80